Terminal Aerodrome Forecast
Issued by NWS

Home | Current Version | Previous Version | Text Only | Print | Product List | Glossary On
Versions: 1 2 3 4 5 6 7 8 9 10 11 12 13 14 15 16 17 18 19 20 21 22 23 24 25 26 27
000
FTUS41 KALY 281135
TAFPSF
TAF
KPSF 281135Z 2812/2912 30007KT 6SM -SN OVC009
      TEMPO 2812/2814 2SM -SHSN OVC005
     FM281400 31010KT 4SM -SN BR SCT008 OVC012
      TEMPO 2814/2818 1 1/2SM -SN BR VV008
     FM281800 31010KT 2SM -SN BR VV008
     FM282300 31010KT 4SM -SHSN OVC015
     FM290400 30008KT P6SM VCSH OVC035
     FM291100 31005KT P6SM SCT045=

USA.gov is the U.S. government's official web portal to all federal, state and local government web resources and services.